Sheffield Square, Vermont
Current Conditions -  °F | °C
As of 5:55 AM on Friday 28 Nov 2014 (Local Time) from KCDA Reporting Station
Light Snow Light Snow  
Wind Chill: 22°   Ceiling: 1700
Heat Index: 22°   Visibility: 2.5mi
Dew Point: 19°   Wind: 3mph
Humidity: 87%   Direction: 250°WSW
Pressure: 30"   Gusts: NA
Location:  44.6401°N, 72.1245°W
Report Text: KCDA 281055Z AUTO 25003KT 2 1/2SM -SN BKN017 OVC029 M05/M07 A3000 RMK AO2 T10541072
Loading
Personal Weather Stations






























Interactive Weather Map New forecast layout! Learn more

10-Day Weather Forecast

Advertisements
Track Severe Weather on mobile